^^
Saratoga-Weather Station Historical Data
Daily Summary for June 09, 2021 Units:  Metric    English   Both
Daily Weekly Monthly Yearly Custom
  High: Low: Average:
Temperature: 27.3 °C 15.3 °C 21.3 °C
Dew Point: 16.8 °C 14.3 °C 15.6 °C
Humidity: 95% 48% 72%
Wind Speed: 13km/h 0km/h 2.4km/h
Wind Gust: 14.5km/h - -
Wind- - SW
Pressure: 1020.7 hPa 1018.3 hPa -
Precipitation: 0.0 mm    
Historical Graphs
 
 
Tabular Data for June 09, 2021
Time Temperature Dew Point Pressure Wind Wind Speed Wind Gust Humidity Rainfall Rate (Hourly) solar
00:04 17.4 °C 16.6 °C 1020.3 hPa Calm     95% 0.0 mm 0 W/m2
00:09 17.4 °C 16.6 °C 1020.3 hPa Calm     95% 0.0 mm 0 W/m2
00:14 17.3 °C 16.5 °C 1020.3 hPa Calm     95% 0.0 mm 0 W/m2
00:19 17.3 °C 16.5 °C 1020.7 hPa Calm     95% 0.0 mm 0 W/m2
00:24 17.3 °C 16.5 °C 1020.7 hPa Calm     95% 0.0 mm 0 W/m2
00:29 17.3 °C 16.5 °C 1020.3 hPa Calm     95% 0.0 mm 0 W/m2
00:34 17.3 °C 16.5 °C 1020.3 hPa Calm     95% 0.0 mm 0 W/m2
00:39 17.3 °C 16.5 °C 1020.3 hPa Calm     95% 0.0 mm 0 W/m2
00:44 17.3 °C 16.5 °C 1020.3 hPa Calm     95% 0.0 mm 0 W/m2
00:49 17.3 °C 16.5 °C 1020.3 hPa Calm     95% 0.0 mm 0 W/m2
00:54 17.2 °C 16.4 °C 1020.3 hPa Calm     95% 0.0 mm 0 W/m2
00:59 17.1 °C 16.3 °C 1020.3 hPa WSW 1.4 km/h 3.2 km/h 95% 0.0 mm 0 W/m2
01:04 17.1 °C 16.3 °C 1020.3 hPa Calm     95% 0.0 mm 0 W/m2
01:09 16.9 °C 16.1 °C 1020.3 hPa Calm     95% 0.0 mm 0 W/m2
01:14 16.9 °C 16.1 °C 1020.3 hPa Calm     95% 0.0 mm 0 W/m2
01:19 16.9 °C 16.1 °C 1020.3 hPa Calm     95% 0.0 mm 0 W/m2
01:24 16.8 °C 16 °C 1020.3 hPa Calm     95% 0.0 mm 0 W/m2
01:29 16.8 °C 16 °C 1020.3 hPa Calm     95% 0.0 mm 0 W/m2
01:34 16.8 °C 16 °C 1020.0 hPa Calm     95% 0.0 mm 0 W/m2
01:39 16.8 °C 16 °C 1020.3 hPa Calm     95% 0.0 mm 0 W/m2
01:44 16.8 °C 16 °C 1020.0 hPa Calm     95% 0.0 mm 0 W/m2
01:49 16.8 °C 16 °C 1020.0 hPa Calm   3.2 km/h 95% 0.0 mm 0 W/m2
01:54 16.7 °C 15.9 °C 1020.0 hPa Calm   1.6 km/h 95% 0.0 mm 0 W/m2
01:59 16.7 °C 15.9 °C 1020.0 hPa Calm   3.2 km/h 95% 0.0 mm 0 W/m2
02:04 16.7 °C 15.9 °C 1020.0 hPa Calm   1.6 km/h 95% 0.0 mm 0 W/m2
02:09 16.7 °C 15.9 °C 1020.0 hPa Calm   3.2 km/h 95% 0.0 mm 0 W/m2
02:14 16.8 °C 16 °C 1020.0 hPa Calm     95% 0.0 mm 0 W/m2
02:19 16.8 °C 15.8 °C 1020.0 hPa Calm     94% 0.0 mm 0 W/m2
02:24 16.8 °C 15.8 °C 1020.0 hPa Calm     94% 0.0 mm 0 W/m2
02:29 16.8 °C 15.8 °C 1020.0 hPa Calm     94% 0.0 mm 0 W/m2
02:34 16.8 °C 15.8 °C 1020.0 hPa Calm     94% 0.0 mm 0 W/m2
02:39 16.8 °C 15.8 °C 1020.0 hPa Calm     94% 0.0 mm 0 W/m2
02:44 16.8 °C 15.8 °C 1020.0 hPa Calm     94% 0.0 mm 0 W/m2
02:49 16.8 °C 15.8 °C 1020.0 hPa Calm     94% 0.0 mm 0 W/m2
02:54 16.8 °C 15.8 °C 1020.0 hPa Calm     94% 0.0 mm 0 W/m2
02:59 16.7 °C 15.7 °C 1020.0 hPa Calm     94% 0.0 mm 0 W/m2
03:04 16.7 °C 15.7 °C 1020.0 hPa Calm     94% 0.0 mm 0 W/m2
03:09 16.6 °C 15.6 °C 1020.0 hPa Calm     94% 0.0 mm 0 W/m2
03:14 16.5 °C 15.4 °C 1020.0 hPa Calm     93% 0.0 mm 0 W/m2
03:20 16.4 °C 15.3 °C 1020.0 hPa Calm     93% 0.0 mm 0 W/m2
03:25 16.4 °C 15.3 °C 1020.0 hPa Calm     93% 0.0 mm 0 W/m2
03:30 16.3 °C 15.3 °C 1020.0 hPa Calm     94% 0.0 mm 0 W/m2
03:35 16.3 °C 15.3 °C 1020.0 hPa Calm     94% 0.0 mm 0 W/m2
03:40 16.2 °C 15.1 °C 1020.0 hPa Calm     93% 0.0 mm 0 W/m2
03:45 16.2 °C 15.2 °C 1020.0 hPa Calm     94% 0.0 mm 0 W/m2
03:50 16.1 °C 15.1 °C 1020.0 hPa Calm     94% 0.0 mm 0 W/m2
03:55 16.1 °C 15.1 °C 1020.0 hPa Calm     94% 0.0 mm 0 W/m2
04:00 16.1 °C 15.1 °C 1020.0 hPa Calm     94% 0.0 mm 0 W/m2
04:05 16 °C 15 °C 1020.0 hPa Calm     94% 0.0 mm 0 W/m2
04:10 16 °C 15 °C 1020.0 hPa Calm     94% 0.0 mm 0 W/m2
04:15 16 °C 15 °C 1020.0 hPa Calm     94% 0.0 mm 0 W/m2
04:20 16 °C 15 °C 1020.0 hPa West 1.4 km/h 3.2 km/h 94% 0.0 mm 0 W/m2
04:25 16 °C 15 °C 1020.0 hPa Calm     94% 0.0 mm 0 W/m2
04:30 16 °C 15 °C 1020.0 hPa West 3.2 km/h 3.2 km/h 94% 0.0 mm 0 W/m2
04:35 16 °C 15 °C 1020.0 hPa Calm     94% 0.0 mm 0 W/m2
04:40 16 °C 15 °C 1020.0 hPa Calm     94% 0.0 mm 0 W/m2
04:45 15.9 °C 14.9 °C 1020.0 hPa Calm     94% 0.0 mm 0 W/m2
04:50 15.9 °C 14.9 °C 1020.0 hPa Calm     94% 0.0 mm 0 W/m2
04:55 15.9 °C 14.9 °C 1020.0 hPa Calm     94% 0.0 mm 0 W/m2
05:00 15.8 °C 14.8 °C 1020.0 hPa Calm     94% 0.0 mm 0 W/m2
05:05 15.8 °C 14.8 °C 1020.0 hPa Calm     94% 0.0 mm 0 W/m2
05:10 15.7 °C 14.7 °C 1020.0 hPa Calm     94% 0.0 mm 0 W/m2
05:15 15.7 °C 14.7 °C 1020.0 hPa Calm     94% 0.0 mm 0 W/m2
05:20 15.6 °C 14.6 °C 1020.0 hPa Calm     94% 0.0 mm 0 W/m2
05:25 15.5 °C 14.5 °C 1020.0 hPa Calm     94% 0.0 mm 0 W/m2
05:30 15.4 °C 14.4 °C 1020.0 hPa Calm   1.6 km/h 94% 0.0 mm 0 W/m2
05:35 15.4 °C 14.4 °C 1020.0 hPa Calm     94% 0.0 mm 5 W/m2
05:40 15.4 °C 14.4 °C 1020.0 hPa Calm     94% 0.0 mm 7 W/m2
05:45 15.3 °C 14.3 °C 1020.0 hPa Calm     94% 0.0 mm 11 W/m2
05:50 15.4 °C 14.4 °C 1020.0 hPa Calm     94% 0.0 mm 16 W/m2
05:55 15.4 °C 14.4 °C 1020.0 hPa Calm   1.6 km/h 94% 0.0 mm 18 W/m2
06:00 15.4 °C 14.4 °C 1020.0 hPa Calm     94% 0.0 mm 19 W/m2
06:05 15.4 °C 14.4 °C 1020.0 hPa Calm     94% 0.0 mm 23 W/m2
06:10 15.4 °C 14.4 °C 1020.0 hPa Calm     94% 0.0 mm 28 W/m2
06:15 15.4 °C 14.4 °C 1020.0 hPa Calm     94% 0.0 mm 35 W/m2
06:20 15.4 °C 14.4 °C 1020.0 hPa Calm     94% 0.0 mm 42 W/m2
06:25 15.4 °C 14.4 °C 1020.0 hPa Calm     94% 0.0 mm 49 W/m2
06:30 15.4 °C 14.4 °C 1020.0 hPa Calm     94% 0.0 mm 54 W/m2
06:35 15.5 °C 14.5 °C 1020.0 hPa Calm     94% 0.0 mm 53 W/m2
06:40 15.5 °C 14.5 °C 1020.0 hPa Calm     94% 0.0 mm 49 W/m2
06:45 15.6 °C 14.6 °C 1020.0 hPa Calm   3.2 km/h 94% 0.0 mm 40 W/m2
06:50 15.7 °C 14.9 °C 1020.3 hPa Calm     95% 0.0 mm 44 W/m2
06:55 15.8 °C 14.8 °C 1020.3 hPa Calm   3.2 km/h 94% 0.0 mm 53 W/m2
07:00 15.9 °C 14.9 °C 1020.3 hPa NE 1.4 km/h 3.2 km/h 94% 0.0 mm 54 W/m2
07:05 16 °C 15 °C 1020.3 hPa ESE 1.4 km/h 4.8 km/h 94% 0.0 mm 58 W/m2
07:10 16.1 °C 15 °C 1020.3 hPa East 3.2 km/h 4.8 km/h 93% 0.0 mm 63 W/m2
07:15 16.3 °C 15.2 °C 1020.3 hPa East 4.7 km/h 6.4 km/h 93% 0.0 mm 67 W/m2
07:20 16.4 °C 15.3 °C 1020.3 hPa East 4.7 km/h 6.4 km/h 93% 0.0 mm 70 W/m2
07:25 16.4 °C 15.1 °C 1020.3 hPa East 3.2 km/h 4.8 km/h 92% 0.0 mm 74 W/m2
07:30 16.5 °C 15.2 °C 1020.3 hPa East 3.2 km/h 4.8 km/h 92% 0.0 mm 76 W/m2
07:35 16.6 °C 15.3 °C 1020.3 hPa East 3.2 km/h 3.2 km/h 92% 0.0 mm 83 W/m2
07:40 16.6 °C 15.1 °C 1020.3 hPa Calm   3.2 km/h 91% 0.0 mm 139 W/m2
07:45 16.8 °C 15.3 °C 1020.3 hPa East 1.4 km/h 1.6 km/h 91% 0.0 mm 199 W/m2
07:50 17 °C 15.5 °C 1020.7 hPa Calm   3.2 km/h 91% 0.0 mm 209 W/m2
07:55 17.3 °C 15.5 °C 1020.7 hPa Calm   3.2 km/h 89% 0.0 mm 218 W/m2
08:00 17.6 °C 15.4 °C 1020.7 hPa Calm   1.6 km/h 87% 0.0 mm 230 W/m2
08:05 17.8 °C 15.2 °C 1020.7 hPa ENE 3.2 km/h 3.2 km/h 85% 0.0 mm 199 W/m2
08:10 18.1 °C 15.4 °C 1020.7 hPa Calm   1.6 km/h 84% 0.0 mm 137 W/m2
08:15 18.3 °C 15.4 °C 1020.3 hPa Calm   1.6 km/h 83% 0.0 mm 98 W/m2
08:20 18.4 °C 15.5 °C 1020.3 hPa Calm   1.6 km/h 83% 0.0 mm 98 W/m2
08:25 18.6 °C 15.5 °C 1020.7 hPa ESE 1.4 km/h 4.8 km/h 82% 0.0 mm 100 W/m2
08:30 18.8 °C 15.7 °C 1020.7 hPa NE 1.4 km/h 4.8 km/h 82% 0.0 mm 100 W/m2
08:35 19 °C 15.7 °C 1020.7 hPa Calm     81% 0.0 mm 100 W/m2
08:40 19.1 °C 15.8 °C 1020.7 hPa WNW 1.4 km/h 4.8 km/h 81% 0.0 mm 102 W/m2
08:45 18.9 °C 15.6 °C 1020.7 hPa WNW 1.4 km/h 3.2 km/h 81% 0.0 mm 104 W/m2
08:50 19.1 °C 15.8 °C 1020.7 hPa West 1.4 km/h 3.2 km/h 81% 0.0 mm 104 W/m2
08:55 19.2 °C 15.7 °C 1020.7 hPa WNW 4.7 km/h 4.8 km/h 80% 0.0 mm 105 W/m2
09:00 19.2 °C 15.5 °C 1020.7 hPa WNW 3.2 km/h 6.4 km/h 79% 0.0 mm 104 W/m2
09:05 19.3 °C 15.6 °C 1020.7 hPa West 3.2 km/h 4.8 km/h 79% 0.0 mm 141 W/m2
09:10 19.3 °C 15.4 °C 1020.7 hPa NW 3.2 km/h 6.4 km/h 78% 0.0 mm 271 W/m2
09:15 19.5 °C 16 °C 1020.7 hPa Calm   4.8 km/h 80% 0.0 mm 422 W/m2
09:20 19.8 °C 16.1 °C 1020.7 hPa SW 3.2 km/h 3.2 km/h 79% 0.0 mm 452 W/m2
09:25 20.2 °C 16 °C 1020.7 hPa Calm   4.8 km/h 77% 0.0 mm 462 W/m2
09:30 20.3 °C 15.9 °C 1020.7 hPa Calm   4.8 km/h 76% 0.0 mm 475 W/m2
09:35 20.4 °C 15.6 °C 1020.7 hPa Calm   1.6 km/h 74% 0.0 mm 492 W/m2
09:40 20.7 °C 16.3 °C 1020.7 hPa NNW 1.4 km/h 4.8 km/h 76% 0.0 mm 501 W/m2
09:45 20.8 °C 16.2 °C 1020.7 hPa East 1.4 km/h 3.2 km/h 75% 0.0 mm 520 W/m2
09:50 21.1 °C 16.1 °C 1020.7 hPa ESE 3.2 km/h 6.4 km/h 73% 0.0 mm 536 W/m2
09:55 21.4 °C 16.1 °C 1020.7 hPa ENE 1.4 km/h 4.8 km/h 72% 0.0 mm 538 W/m2
10:00 21.5 °C 16 °C 1020.7 hPa Calm   6.4 km/h 71% 0.0 mm 561 W/m2
10:05 21.7 °C 16.2 °C 1020.7 hPa Calm   4.8 km/h 71% 0.0 mm 116 W/m2
10:10 21.8 °C 16.1 °C 1020.7 hPa ESE 6.4 km/h 6.4 km/h 70% 0.0 mm 148 W/m2
10:15 21.9 °C 16.2 °C 1020.7 hPa SE 4.7 km/h 4.8 km/h 70% 0.0 mm 594 W/m2
10:20 22 °C 15.8 °C 1020.7 hPa East 3.2 km/h 6.4 km/h 68% 0.0 mm 608 W/m2
10:25 22.1 °C 16.4 °C 1020.7 hPa ENE 4.7 km/h 4.8 km/h 70% 0.0 mm 631 W/m2
10:30 22.2 °C 16 °C 1020.7 hPa ESE 3.2 km/h 12.9 km/h 68% 0.0 mm 633 W/m2
10:35 22.3 °C 15.9 °C 1020.7 hPa ESE 1.4 km/h 3.2 km/h 67% 0.0 mm 649 W/m2
10:40 22.5 °C 15.6 °C 1020.7 hPa East 1.4 km/h 12.9 km/h 65% 0.0 mm 666 W/m2
10:46 22.5 °C 15.6 °C 1020.7 hPa North 3.2 km/h 11.3 km/h 65% 0.0 mm 677 W/m2
10:51 22.6 °C 16.2 °C 1020.7 hPa ESE 3.2 km/h 6.4 km/h 67% 0.0 mm 670 W/m2
10:56 22.8 °C 16.4 °C 1020.7 hPa East 3.2 km/h 11.3 km/h 67% 0.0 mm 726 W/m2
11:01 23.2 °C 16 °C 1020.7 hPa ENE 3.2 km/h 9.7 km/h 64% 0.0 mm 703 W/m2
11:06 23.4 °C 16 °C 1020.7 hPa West 1.4 km/h 3.2 km/h 63% 0.0 mm 717 W/m2
11:11 23.4 °C 14.9 °C 1020.7 hPa NNW 1.4 km/h 9.7 km/h 59% 0.0 mm 719 W/m2
11:16 23.4 °C 14.4 °C 1020.7 hPa West 6.4 km/h 9.7 km/h 57% 0.0 mm 728 W/m2
11:21 23.2 °C 14.7 °C 1020.7 hPa WNW 3.2 km/h 9.7 km/h 59% 0.0 mm 738 W/m2
11:26 23.3 °C 15.1 °C 1020.7 hPa SW 1.4 km/h 6.4 km/h 60% 0.0 mm 729 W/m2
11:31 23.4 °C 15.2 °C 1020.7 hPa SW 1.4 km/h 9.7 km/h 60% 0.0 mm 724 W/m2
11:36 23.8 °C 15.3 °C 1020.7 hPa NW 6.4 km/h 8 km/h 59% 0.0 mm 756 W/m2
11:41 23.8 °C 15.6 °C 1020.7 hPa Calm   9.7 km/h 60% 0.0 mm 793 W/m2
11:46 23.9 °C 15.4 °C 1020.7 hPa North 3.2 km/h 3.2 km/h 59% 0.0 mm 803 W/m2
11:51 24.2 °C 15.4 °C 1020.3 hPa NW 4.7 km/h 12.9 km/h 58% 0.0 mm 705 W/m2
11:56 24.2 °C 15.7 °C 1020.3 hPa ENE 3.2 km/h 8 km/h 59% 0.0 mm 772 W/m2
12:01 24.3 °C 15.5 °C 1020.7 hPa NE 1.4 km/h 12.9 km/h 58% 0.0 mm 805 W/m2
12:06 24.5 °C 16 °C 1020.3 hPa NW 1.4 km/h 8 km/h 59% 0.0 mm 786 W/m2
12:11 24.6 °C 16.8 °C 1020.3 hPa NNE 1.4 km/h 8 km/h 62% 0.0 mm 765 W/m2
12:16 24.8 °C 16.2 °C 1020.3 hPa WNW 3.2 km/h 4.8 km/h 59% 0.0 mm 828 W/m2
12:21 24.8 °C 16 °C 1020.3 hPa North 3.2 km/h 3.2 km/h 58% 0.0 mm 868 W/m2
12:26 25.1 °C 16.5 °C 1020.3 hPa SE 1.4 km/h 6.4 km/h 59% 0.0 mm 851 W/m2
12:31 25.5 °C 15.8 °C 1020.3 hPa NE 3.2 km/h 8 km/h 55% 0.0 mm 902 W/m2
12:36 25.4 °C 15.4 °C 1020.3 hPa ENE 4.7 km/h 11.3 km/h 54% 0.0 mm 248 W/m2
12:41 25.1 °C 16.3 °C 1020.3 hPa Calm   1.6 km/h 58% 0.0 mm 264 W/m2
12:46 24.8 °C 15.1 °C 1020.3 hPa West 9.7 km/h 9.7 km/h 55% 0.0 mm 299 W/m2
12:51 24.5 °C 14.6 °C 1020.3 hPa SW 1.4 km/h 4.8 km/h 54% 0.0 mm 295 W/m2
12:56 24.5 °C 15.1 °C 1020.3 hPa NNW 4.7 km/h 8 km/h 56% 0.0 mm 376 W/m2
13:01 24.7 °C 15.3 °C 1020.3 hPa West 4.7 km/h 4.8 km/h 56% 0.0 mm 388 W/m2
13:06 24.8 °C 15.1 °C 1020.3 hPa West 4.7 km/h 6.4 km/h 55% 0.0 mm 1027 W/m2
13:11 24.8 °C 14.9 °C 1020.3 hPa NNW 7.9 km/h 11.3 km/h 54% 0.0 mm 313 W/m2
13:16 24.8 °C 14.9 °C 1020.3 hPa NNW 3.2 km/h 6.4 km/h 54% 0.0 mm 895 W/m2
13:21 25.1 °C 14.6 °C 1020.3 hPa NW 3.2 km/h 9.7 km/h 52% 0.0 mm 998 W/m2
13:26 25.3 °C 15 °C 1020.0 hPa NW 3.2 km/h 4.8 km/h 53% 0.0 mm 972 W/m2
13:31 25.4 °C 15.1 °C 1020.0 hPa WNW 7.9 km/h 14.5 km/h 53% 0.0 mm 756 W/m2
13:36 25.2 °C 14.6 °C 1020.0 hPa West 6.4 km/h 11.3 km/h 52% 0.0 mm 939 W/m2
13:41 25.2 °C 14.6 °C 1020.0 hPa NNE 3.2 km/h 6.4 km/h 52% 0.0 mm 960 W/m2
13:46 25.6 °C 14.7 °C 1020.0 hPa West 4.7 km/h 8 km/h 51% 0.0 mm 911 W/m2
13:51 25.8 °C 14.6 °C 1020.0 hPa WNW 7.9 km/h 14.5 km/h 50% 0.0 mm 875 W/m2
13:56 25.7 °C 15.1 °C 1020.0 hPa West 4.7 km/h 14.5 km/h 52% 0.0 mm 937 W/m2
14:01 25.7 °C 14.8 °C 1020.0 hPa NNW 3.2 km/h 6.4 km/h 51% 0.0 mm 926 W/m2
14:06 25.8 °C 14.9 °C 1020.0 hPa NNE 7.9 km/h 14.5 km/h 51% 0.0 mm 988 W/m2
14:11 25.9 °C 15 °C 1019.6 hPa WSW 6.4 km/h 6.4 km/h 51% 0.0 mm 998 W/m2
14:16 25.8 °C 14.6 °C 1019.6 hPa NNW 3.2 km/h 14.5 km/h 50% 0.0 mm 290 W/m2
14:21 25.6 °C 15 °C 1019.6 hPa WNW 6.4 km/h 12.9 km/h 52% 0.0 mm 392 W/m2
14:26 25.4 °C 14.5 °C 1019.6 hPa NNW 4.7 km/h 14.5 km/h 51% 0.0 mm 362 W/m2
14:31 25.4 °C 15.1 °C 1019.6 hPa WNW 6.4 km/h 9.7 km/h 53% 0.0 mm 309 W/m2
14:36 25.4 °C 15.7 °C 1019.6 hPa WSW 1.4 km/h 14.5 km/h 55% 0.0 mm 940 W/m2
14:41 25.7 °C 15.4 °C 1019.6 hPa WSW 4.7 km/h 11.3 km/h 53% 0.0 mm 939 W/m2
14:46 25.5 °C 14.9 °C 1019.6 hPa West 9.7 km/h 11.3 km/h 52% 0.0 mm 325 W/m2
14:51 25.6 °C 15.3 °C 1019.6 hPa NNW 1.4 km/h 6.4 km/h 53% 0.0 mm 893 W/m2
14:56 25.8 °C 15.2 °C 1019.6 hPa West 3.2 km/h 6.4 km/h 52% 0.0 mm 911 W/m2
15:01 26 °C 14.8 °C 1019.6 hPa ENE 3.2 km/h 8 km/h 50% 0.0 mm 921 W/m2
15:06 26.2 °C 15.6 °C 1019.6 hPa West 4.7 km/h 14.5 km/h 52% 0.0 mm 860 W/m2
15:11 26.3 °C 15 °C 1019.6 hPa SSW 1.4 km/h 9.7 km/h 50% 0.0 mm 889 W/m2
15:16 26.3 °C 15 °C 1019.3 hPa West 3.2 km/h 14.5 km/h 50% 0.0 mm 868 W/m2
15:21 26.3 °C 15.7 °C 1019.6 hPa NNE 3.2 km/h 9.7 km/h 52% 0.0 mm 830 W/m2
15:26 26.1 °C 14.9 °C 1019.3 hPa West 1.4 km/h 14.5 km/h 50% 0.0 mm 216 W/m2
15:31 25.9 °C 15 °C 1019.3 hPa Calm   6.4 km/h 51% 0.0 mm 218 W/m2
15:36 25.8 °C 15.2 °C 1019.3 hPa East 3.2 km/h 12.9 km/h 52% 0.0 mm 853 W/m2
15:41 26 °C 15.7 °C 1019.3 hPa ENE 1.4 km/h 6.4 km/h 53% 0.0 mm 687 W/m2
15:46 26.2 °C 15.3 °C 1019.3 hPa WNW 4.7 km/h 9.7 km/h 51% 0.0 mm 768 W/m2
15:51 26.1 °C 14.9 °C 1019.3 hPa WNW 1.4 km/h 11.3 km/h 50% 0.0 mm 796 W/m2
15:56 26.1 °C 15.2 °C 1019.3 hPa WNW 6.4 km/h 9.7 km/h 51% 0.0 mm 197 W/m2
16:01 26 °C 15.1 °C 1019.0 hPa WNW 11.1 km/h 11.3 km/h 51% 0.0 mm 239 W/m2
16:06 25.9 °C 15.9 °C 1019.3 hPa WNW 4.7 km/h 8 km/h 54% 0.0 mm 874 W/m2
16:11 26.1 °C 15.5 °C 1019.0 hPa North 4.7 km/h 6.4 km/h 52% 0.0 mm 853 W/m2
16:16 26.3 °C 15.7 °C 1019.0 hPa West 3.2 km/h 6.4 km/h 52% 0.0 mm 209 W/m2
16:21 26.4 °C 16 °C 1019.0 hPa North 3.2 km/h 4.8 km/h 53% 0.0 mm 202 W/m2
16:26 26.3 °C 15.4 °C 1019.0 hPa West 6.4 km/h 6.4 km/h 51% 0.0 mm 260 W/m2
16:31 26 °C 14.8 °C 1019.0 hPa NW 3.2 km/h 9.7 km/h 50% 0.0 mm 269 W/m2
16:36 26.1 °C 15.5 °C 1019.0 hPa WNW 1.4 km/h 3.2 km/h 52% 0.0 mm 712 W/m2
16:41 26.4 °C 14.8 °C 1019.0 hPa ENE 3.2 km/h 9.7 km/h 49% 0.0 mm 714 W/m2
16:46 26.8 °C 15.2 °C 1019.0 hPa NW 3.2 km/h 8 km/h 49% 0.0 mm 719 W/m2
16:51 27.2 °C 15.9 °C 1019.0 hPa North 1.4 km/h 4.8 km/h 50% 0.0 mm 729 W/m2
16:56 27.3 °C 15.3 °C 1019.0 hPa ESE 1.4 km/h 12.9 km/h 48% 0.0 mm 679 W/m2
17:01 27.1 °C 15.5 °C 1019.0 hPa NW 3.2 km/h 14.5 km/h 49% 0.0 mm 181 W/m2
17:06 26.6 °C 15 °C 1019.0 hPa NNW 4.7 km/h 9.7 km/h 49% 0.0 mm 163 W/m2
17:11 26.3 °C 15.4 °C 1019.0 hPa NE 1.4 km/h 3.2 km/h 51% 0.0 mm 151 W/m2
17:16 26.2 °C 15.6 °C 1019.0 hPa WNW 4.7 km/h 8 km/h 52% 0.0 mm 127 W/m2
17:21 25.9 °C 15 °C 1019.0 hPa WNW 1.4 km/h 3.2 km/h 51% 0.0 mm 144 W/m2
17:26 25.9 °C 15.3 °C 1019.0 hPa SW 1.4 km/h 3.2 km/h 52% 0.0 mm 149 W/m2
17:32 25.8 °C 15.2 °C 1019.0 hPa West 6.4 km/h 6.4 km/h 52% 0.0 mm 163 W/m2
17:37 25.7 °C 15.1 °C 1019.0 hPa West 3.2 km/h 8 km/h 52% 0.0 mm 526 W/m2
17:42 25.9 °C 15.3 °C 1018.6 hPa WNW 6.4 km/h 8 km/h 52% 0.0 mm 559 W/m2
17:47 25.9 °C 15 °C 1018.6 hPa WNW 7.9 km/h 8 km/h 51% 0.0 mm 499 W/m2
17:52 26.1 °C 15.5 °C 1018.6 hPa West 3.2 km/h 4.8 km/h 52% 0.0 mm 570 W/m2
17:57 26.4 °C 15.4 °C 1018.6 hPa West 4.7 km/h 9.7 km/h 51% 0.0 mm 371 W/m2
18:02 26.5 °C 15.5 °C 1018.6 hPa WSW 7.9 km/h 8 km/h 51% 0.0 mm 483 W/m2
18:07 26.4 °C 14.8 °C 1018.6 hPa WSW 4.7 km/h 9.7 km/h 49% 0.0 mm 301 W/m2
18:12 26.4 °C 15.1 °C 1018.6 hPa WSW 6.4 km/h 9.7 km/h 50% 0.0 mm 455 W/m2
18:17 26.4 °C 15.8 °C 1018.6 hPa WSW 4.7 km/h 9.7 km/h 52% 0.0 mm 499 W/m2
18:22 26.4 °C 15.8 °C 1018.6 hPa West 6.4 km/h 12.9 km/h 52% 0.0 mm 381 W/m2
18:27 26.1 °C 15.2 °C 1018.6 hPa West 4.7 km/h 9.7 km/h 51% 0.0 mm 262 W/m2
18:32 25.9 °C 15.6 °C 1018.6 hPa NW 4.7 km/h 11.3 km/h 53% 0.0 mm 281 W/m2
18:37 25.9 °C 16.2 °C 1018.3 hPa WNW 3.2 km/h 11.3 km/h 55% 0.0 mm 378 W/m2
18:42 26.1 °C 16.1 °C 1018.6 hPa WSW 7.9 km/h 9.7 km/h 54% 0.0 mm 339 W/m2
18:47 25.9 °C 15.9 °C 1018.6 hPa WNW 6.4 km/h 11.3 km/h 54% 0.0 mm 186 W/m2
18:52 25.6 °C 15.9 °C 1018.6 hPa WSW 6.4 km/h 9.7 km/h 55% 0.0 mm 144 W/m2
18:57 25.2 °C 15.8 °C 1018.6 hPa West 4.7 km/h 6.4 km/h 56% 0.0 mm 135 W/m2
19:02 24.9 °C 15.8 °C 1018.6 hPa WNW 1.4 km/h 6.4 km/h 57% 0.0 mm 132 W/m2
19:07 24.8 °C 15.7 °C 1018.6 hPa WSW 3.2 km/h 9.7 km/h 57% 0.0 mm 223 W/m2
19:12 24.9 °C 15.8 °C 1018.6 hPa WNW 3.2 km/h 8 km/h 57% 0.0 mm 274 W/m2
19:17 25.2 °C 16.1 °C 1018.6 hPa West 4.7 km/h 4.8 km/h 57% 0.0 mm 267 W/m2
19:22 25.3 °C 15.9 °C 1018.6 hPa WSW 4.7 km/h 8 km/h 56% 0.0 mm 193 W/m2
19:27 25.3 °C 15.6 °C 1018.6 hPa WNW 3.2 km/h 6.4 km/h 55% 0.0 mm 93 W/m2
19:32 25.2 °C 16.3 °C 1018.6 hPa West 1.4 km/h 4.8 km/h 58% 0.0 mm 107 W/m2
19:37 25 °C 16.7 °C 1018.6 hPa West 1.4 km/h 3.2 km/h 60% 0.0 mm 183 W/m2
19:42 24.9 °C 16.6 °C 1018.6 hPa Calm   4.8 km/h 60% 0.0 mm 91 W/m2
19:47 24.8 °C 16.2 °C 1018.6 hPa West 1.4 km/h 3.2 km/h 59% 0.0 mm 58 W/m2
19:52 24.7 °C 16.1 °C 1018.6 hPa WSW 4.7 km/h 6.4 km/h 59% 0.0 mm 49 W/m2
19:57 24.6 °C 16.3 °C 1018.6 hPa WSW 1.4 km/h 4.8 km/h 60% 0.0 mm 51 W/m2
20:02 24.4 °C 15.3 °C 1018.6 hPa WSW 3.2 km/h 6.4 km/h 57% 0.0 mm 60 W/m2
20:07 24.4 °C 15.9 °C 1018.6 hPa WSW 3.2 km/h 4.8 km/h 59% 0.0 mm 67 W/m2
20:12 24.3 °C 15.5 °C 1018.6 hPa West 3.2 km/h 6.4 km/h 58% 0.0 mm 72 W/m2
20:17 24.3 °C 15.8 °C 1018.6 hPa West 4.7 km/h 4.8 km/h 59% 0.0 mm 65 W/m2
20:22 24.3 °C 15.8 °C 1018.6 hPa West 1.4 km/h 4.8 km/h 59% 0.0 mm 42 W/m2
20:27 24.2 °C 15.7 °C 1019.0 hPa West 3.2 km/h 3.2 km/h 59% 0.0 mm 33 W/m2
20:32 24.1 °C 15.8 °C 1019.0 hPa Calm   3.2 km/h 60% 0.0 mm 26 W/m2
20:37 24.1 °C 16.4 °C 1019.0 hPa Calm     62% 0.0 mm 23 W/m2
20:42 24 °C 16.5 °C 1019.0 hPa Calm   1.6 km/h 63% 0.0 mm 18 W/m2
20:47 23.9 °C 16.2 °C 1019.0 hPa West 3.2 km/h 3.2 km/h 62% 0.0 mm 18 W/m2
20:52 23.8 °C 16.6 °C 1019.0 hPa West 1.4 km/h 3.2 km/h 64% 0.0 mm 14 W/m2
20:57 23.7 °C 16.7 °C 1019.0 hPa West 1.4 km/h 1.6 km/h 65% 0.0 mm 12 W/m2
21:02 23.5 °C 16.5 °C 1019.0 hPa Calm   3.2 km/h 65% 0.0 mm 11 W/m2
21:07 23.2 °C 16.3 °C 1019.0 hPa Calm     65% 0.0 mm 7 W/m2
21:12 23.1 °C 16.4 °C 1019.0 hPa Calm     66% 0.0 mm 7 W/m2
21:17 22.9 °C 16.2 °C 1019.3 hPa Calm     66% 0.0 mm 5 W/m2
21:22 22.8 °C 16.4 °C 1019.3 hPa Calm     67% 0.0 mm 0 W/m2
21:27 22.8 °C 16.4 °C 1019.3 hPa NW 3.2 km/h 6.4 km/h 67% 0.0 mm 0 W/m2
21:32 22.7 °C 16.3 °C 1019.3 hPa West 1.4 km/h 3.2 km/h 67% 0.0 mm 0 W/m2
21:37 22.7 °C 16.5 °C 1019.3 hPa WNW 4.7 km/h 6.4 km/h 68% 0.0 mm 0 W/m2
21:42 22.8 °C 16.6 °C 1019.3 hPa West 3.2 km/h 3.2 km/h 68% 0.0 mm 0 W/m2
21:47 22.8 °C 16.6 °C 1019.3 hPa WNW 3.2 km/h 4.8 km/h 68% 0.0 mm 0 W/m2
21:52 22.8 °C 16.6 °C 1019.3 hPa WNW 4.7 km/h 9.7 km/h 68% 0.0 mm 0 W/m2
21:57 22.8 °C 16.6 °C 1019.6 hPa West 3.2 km/h 6.4 km/h 68% 0.0 mm 0 W/m2
22:02 22.8 °C 16.4 °C 1019.6 hPa WSW 1.4 km/h 4.8 km/h 67% 0.0 mm 0 W/m2
22:07 22.8 °C 16.4 °C 1019.6 hPa WSW 3.2 km/h 6.4 km/h 67% 0.0 mm 0 W/m2
22:12 22.8 °C 16.4 °C 1019.6 hPa SW 3.2 km/h 6.4 km/h 67% 0.0 mm 0 W/m2
22:17 22.8 °C 16.4 °C 1019.6 hPa WSW 4.7 km/h 6.4 km/h 67% 0.0 mm 0 W/m2
22:22 22.7 °C 16.3 °C 1019.6 hPa West 4.7 km/h 8 km/h 67% 0.0 mm 0 W/m2
22:27 22.7 °C 16.3 °C 1019.6 hPa WSW 4.7 km/h 9.7 km/h 67% 0.0 mm 0 W/m2
22:32 22.6 °C 16.2 °C 1019.6 hPa WNW 3.2 km/h 4.8 km/h 67% 0.0 mm 0 W/m2
22:37 22.5 °C 16.3 °C 1019.6 hPa WNW 3.2 km/h 9.7 km/h 68% 0.0 mm 0 W/m2
22:42 22.4 °C 16.2 °C 1019.6 hPa WNW 4.7 km/h 9.7 km/h 68% 0.0 mm 0 W/m2
22:47 22.3 °C 16.3 °C 1019.6 hPa West 3.2 km/h 9.7 km/h 69% 0.0 mm 0 W/m2
22:52 22.2 °C 16.2 °C 1019.6 hPa West 4.7 km/h 9.7 km/h 69% 0.0 mm 0 W/m2
22:57 22.1 °C 16.1 °C 1019.6 hPa West 13 km/h 12.9 km/h 69% 0.0 mm 0 W/m2
23:02 21.9 °C 16 °C 1019.6 hPa West 3.2 km/h 11.3 km/h 69% 0.0 mm 0 W/m2
23:07 21.8 °C 16.1 °C 1019.6 hPa West 4.7 km/h 14.5 km/h 70% 0.0 mm 0 W/m2
23:12 21.8 °C 16.1 °C 1019.6 hPa West 4.7 km/h 11.3 km/h 70% 0.0 mm 0 W/m2
23:17 21.6 °C 15.9 °C 1019.6 hPa West 6.4 km/h 14.5 km/h 70% 0.0 mm 0 W/m2
23:22 21.4 °C 15.9 °C 1019.6 hPa West 6.4 km/h 14.5 km/h 71% 0.0 mm 0 W/m2
23:27 21.4 °C 15.9 °C 1019.6 hPa WNW 6.4 km/h 9.7 km/h 71% 0.0 mm 0 W/m2
23:32 21.3 °C 15.8 °C 1019.6 hPa West 3.2 km/h 14.5 km/h 71% 0.0 mm 0 W/m2
23:37 21.2 °C 15.7 °C 1019.6 hPa WNW 4.7 km/h 6.4 km/h 71% 0.0 mm 0 W/m2
23:42 21 °C 15.8 °C 1019.6 hPa West 4.7 km/h 9.7 km/h 72% 0.0 mm 0 W/m2
23:47 20.8 °C 15.6 °C 1019.6 hPa WSW 3.2 km/h 8 km/h 72% 0.0 mm 0 W/m2
23:52 20.8 °C 15.6 °C 1019.6 hPa West 3.2 km/h 3.2 km/h 72% 0.0 mm 0 W/m2
23:57 20.7 °C 15.5 °C 1019.6 hPa West 3.2 km/h 4.8 km/h 72% 0.0 mm 0 W/m2
Juneau County Weather
Compliments of Weather Underground - 4 mb